createdAt,value
2022-09-12T00:00:47.199Z,12.10
2022-09-12T00:03:42.967Z,12.08
2022-09-12T00:06:22.667Z,12.07
2022-09-12T00:08:57.833Z,12.08
2022-09-12T00:11:30.540Z,12.06
2022-09-12T00:14:04.565Z,12.04
2022-09-12T00:16:38.499Z,12.04
2022-09-12T00:19:11.656Z,12.04
2022-09-12T00:21:44.284Z,12.01
2022-09-12T00:24:16.932Z,11.99
2022-09-12T00:26:49.280Z,11.98
2022-09-12T00:29:23.494Z,11.95
2022-09-12T00:31:57.032Z,11.91
2022-09-12T00:34:29.315Z,11.92
2022-09-12T00:37:01.872Z,11.93
2022-09-12T00:39:34.512Z,11.93
2022-09-12T00:42:07.309Z,11.93
2022-09-12T00:44:54.269Z,11.91
2022-09-12T00:47:32.308Z,11.88
2022-09-12T00:50:10.234Z,11.84
2022-09-12T00:52:45.889Z,11.83
2022-09-12T00:55:22.338Z,11.83
2022-09-12T00:57:58.884Z,11.79
2022-09-12T01:00:31.242Z,11.76
2022-09-12T01:03:06.417Z,11.74
2022-09-12T01:05:44.335Z,11.72
2022-09-12T01:08:17.012Z,11.71
2022-09-12T01:10:50.014Z,11.67
2022-09-12T01:13:22.654Z,11.64
2022-09-12T01:15:55.937Z,11.62
2022-09-12T01:18:33.861Z,11.63
2022-09-12T01:21:14.936Z,11.63
2022-09-12T01:24:11.171Z,11.60
2022-09-12T01:27:21.968Z,11.56
2022-09-12T01:30:17.619Z,11.55
2022-09-12T01:33:04.882Z,11.50
2022-09-12T01:35:46.268Z,11.46
2022-09-12T01:38:25.847Z,11.46
2022-09-12T01:41:06.364Z,11.43
2022-09-12T01:43:48.241Z,11.43
2022-09-12T01:46:24.739Z,11.42
2022-09-12T01:49:01.505Z,11.42
2022-09-12T01:51:40.048Z,11.41
2022-09-12T01:54:18.488Z,11.36
2022-09-12T01:56:55.104Z,11.32
2022-09-12T01:59:31.929Z,11.31
2022-09-12T02:02:09.941Z,11.30
2022-09-12T02:04:48.859Z,11.28
2022-09-12T02:19:17.101Z,11.19
2022-09-12T02:32:14.872Z,11.13
2022-09-12T02:39:06.813Z,11.11
2022-09-12T02:41:39.551Z,11.08
2022-09-12T02:44:18.475Z,11.06
2022-09-12T02:51:05.780Z,11.04
2022-09-12T02:57:34.376Z,11.00
2022-09-12T03:18:43.862Z,10.93
2022-09-12T03:21:39.224Z,10.94
2022-09-12T03:26:04.578Z,10.94
2022-09-12T03:29:25.069Z,10.93
2022-09-12T03:36:54.844Z,10.84
2022-09-12T03:43:53.581Z,10.79
2022-09-12T03:46:26.064Z,10.80
2022-09-12T03:49:06.262Z,10.82
2022-09-12T03:56:57.493Z,10.77
2022-09-12T03:59:36.710Z,10.77
2022-09-12T04:02:11.861Z,10.76
2022-09-12T04:05:40.400Z,10.75
2022-09-12T04:08:13.054Z,10.74
2022-09-12T04:11:14.061Z,10.75
2022-09-12T04:18:06.097Z,10.75
2022-09-12T04:25:34.623Z,10.73
2022-09-12T04:29:20.623Z,10.70
2022-09-12T04:31:53.206Z,10.64
2022-09-12T04:34:35.338Z,10.64
2022-09-12T04:37:54.778Z,10.65
2022-09-12T04:40:32.164Z,10.65
2022-09-12T04:43:11.198Z,10.63
2022-09-12T04:46:35.388Z,10.57
2022-09-12T04:49:16.385Z,10.54
2022-09-12T04:57:35.260Z,10.59
2022-09-12T05:00:16.331Z,10.57
2022-09-12T05:03:03.314Z,10.57
2022-09-12T05:05:38.538Z,10.62
2022-09-12T05:13:49.184Z,10.68
2022-09-12T05:16:31.373Z,10.68
2022-09-12T05:23:42.725Z,10.68
2022-09-12T05:26:21.707Z,10.68
2022-09-12T05:33:01.397Z,10.81
2022-09-12T05:35:34.059Z,10.84
2022-09-12T05:38:12.388Z,10.85
2022-09-12T05:40:45.047Z,10.89
2022-09-12T05:43:23.852Z,10.91
2022-09-12T05:50:17.533Z,11.10
2022-09-12T06:02:04.534Z,11.29
2022-09-12T06:13:53.895Z,11.87
2022-09-12T06:16:28.211Z,12.05
2022-09-12T06:19:50.350Z,12.30
2022-09-12T06:22:22.706Z,12.48
2022-09-12T06:25:01.451Z,12.65
2022-09-12T06:31:55.350Z,13.07
2022-09-12T06:34:27.980Z,13.09
2022-09-12T06:37:06.593Z,13.12
2022-09-12T06:39:39.340Z,13.21
2022-09-12T06:42:20.096Z,13.37
2022-09-12T06:50:17.033Z,13.58
2022-09-12T06:52:55.463Z,13.63
2022-09-12T06:55:28.279Z,13.78
2022-09-12T06:58:07.092Z,13.98
2022-09-12T07:00:39.729Z,14.20
2022-09-12T07:03:18.625Z,14.32
2022-09-12T07:05:51.152Z,14.32
2022-09-12T07:08:31.965Z,14.34
2022-09-12T07:11:54.479Z,14.48
2022-09-12T07:14:33.580Z,14.67
2022-09-12T07:17:06.153Z,14.87
2022-09-12T07:19:44.814Z,14.89
2022-09-12T07:22:17.610Z,15.07
2022-09-12T07:24:57.726Z,15.32
2022-09-12T07:36:19.260Z,15.22
2022-09-12T07:48:22.620Z,14.81
2022-09-12T07:55:27.458Z,14.70
2022-09-12T07:58:06.684Z,14.77
2022-09-12T08:00:38.928Z,15.09
2022-09-12T08:03:17.918Z,15.47
2022-09-12T08:05:49.999Z,16.03
2022-09-12T08:13:12.861Z,16.21
2022-09-12T08:15:51.613Z,15.93
2022-09-12T08:23:44.369Z,17.41
2022-09-12T08:26:24.788Z,18.10
2022-09-12T08:28:57.333Z,18.76
2022-09-12T08:31:37.454Z,19.19
2022-09-12T08:39:02.992Z,19.58
2022-09-12T08:47:11.727Z,21.31
2022-09-12T08:50:17.787Z,20.94
2022-09-12T08:53:47.735Z,19.47
2022-09-12T09:02:00.833Z,20.32
2022-09-12T09:05:31.846Z,21.45
2022-09-12T09:17:45.165Z,20.57
2022-09-12T09:24:50.569Z,19.61
2022-09-12T09:49:24.649Z,21.76
2022-09-12T09:56:21.464Z,21.04
2022-09-12T10:03:58.467Z,21.31
2022-09-12T10:14:41.637Z,19.95
2022-09-12T10:17:34.500Z,19.71
2022-09-12T10:20:32.858Z,19.43
2022-09-12T10:23:24.736Z,19.25
2022-09-12T10:25:59.593Z,19.10
2022-09-12T10:28:37.453Z,19.06
2022-09-12T10:31:11.792Z,18.97
2022-09-12T10:33:52.899Z,18.73
2022-09-12T10:36:37.019Z,18.47
2022-09-12T10:39:17.427Z,18.38
2022-09-12T10:41:49.883Z,18.36
2022-09-12T10:44:28.236Z,18.35
2022-09-12T10:47:02.461Z,18.37
2022-09-12T10:49:55.515Z,18.37
2022-09-12T10:52:28.699Z,18.39
2022-09-12T10:55:01.879Z,18.46
2022-09-12T10:57:48.173Z,18.52
2022-09-12T11:00:27.950Z,18.47
2022-09-12T11:03:16.452Z,18.27
2022-09-12T11:06:01.252Z,18.16
2022-09-12T11:08:59.456Z,18.12
2022-09-12T11:11:46.803Z,18.18
2022-09-12T11:14:31.807Z,18.24
2022-09-12T11:17:13.723Z,18.19
2022-09-12T11:20:15.248Z,18.12
2022-09-12T11:23:10.531Z,18.11
2022-09-12T11:25:49.236Z,18.23
2022-09-12T11:28:32.673Z,18.24
2022-09-12T11:31:32.243Z,18.25
2022-09-12T11:34:10.610Z,18.30
2022-09-12T11:36:57.335Z,18.19
2022-09-12T11:39:38.023Z,18.04
2022-09-12T11:42:19.790Z,17.98
2022-09-12T11:45:14.017Z,17.99
2022-09-12T11:47:49.372Z,18.07
2022-09-12T11:50:27.052Z,18.10
2022-09-12T11:53:06.434Z,18.05
2022-09-12T11:55:48.101Z,18.04
2022-09-12T11:58:24.618Z,18.13
2022-09-12T12:01:00.521Z,18.20
2022-09-12T12:03:41.970Z,18.26
2022-09-12T12:06:20.495Z,18.22
2022-09-12T12:08:56.710Z,18.15
2022-09-12T12:11:35.305Z,18.11
2022-09-12T12:14:18.259Z,18.16
2022-09-12T12:16:51.224Z,18.14
2022-09-12T12:19:35.945Z,18.06
2022-09-12T12:27:14.765Z,17.77
2022-09-12T12:29:48.054Z,17.58
2022-09-12T12:42:36.068Z,17.60
2022-09-12T12:45:50.000Z,17.59
2022-09-12T12:48:22.378Z,17.52
2022-09-12T12:51:15.968Z,17.53
2022-09-12T12:53:48.743Z,17.63
2022-09-12T12:56:35.426Z,17.71
2022-09-12T13:03:35.293Z,18.14
2022-09-12T13:06:10.426Z,18.32
2022-09-12T13:08:56.824Z,18.48
2022-09-12T13:11:36.977Z,18.62
2022-09-12T13:14:30.798Z,18.65
2022-09-12T13:17:06.185Z,18.63
2022-09-12T13:19:40.550Z,18.58
2022-09-12T13:22:13.087Z,18.61
2022-09-12T13:24:48.987Z,18.75
2022-09-12T13:27:23.374Z,18.84
2022-09-12T13:30:09.781Z,18.83
2022-09-12T13:32:42.570Z,18.81
2022-09-12T13:35:23.410Z,18.71
2022-09-12T13:38:03.018Z,18.54
2022-09-12T13:40:42.728Z,18.39
2022-09-12T13:43:21.540Z,18.27
2022-09-12T13:45:56.320Z,18.19
2022-09-12T13:48:28.994Z,18.11
2022-09-12T13:51:07.060Z,18.07
2022-09-12T13:53:51.022Z,18.05
2022-09-12T13:56:23.763Z,18.08
2022-09-12T13:58:58.100Z,18.17
2022-09-12T14:01:42.633Z,18.25
2022-09-12T14:04:38.994Z,18.37
2022-09-12T14:07:17.518Z,18.47
2022-09-12T14:09:57.222Z,18.49
2022-09-12T14:12:33.275Z,18.37
2022-09-12T14:15:07.227Z,18.29
2022-09-12T14:17:41.831Z,18.21
2022-09-12T14:20:18.822Z,18.12
2022-09-12T14:22:52.851Z,18.14
2022-09-12T14:28:31.788Z,18.20
2022-09-12T14:31:08.456Z,18.21
2022-09-12T14:33:51.682Z,18.24
2022-09-12T14:36:33.681Z,18.29
2022-09-12T14:39:18.269Z,18.31
2022-09-12T14:41:51.633Z,18.40
2022-09-12T14:44:28.583Z,18.44
2022-09-12T14:47:12.563Z,18.52
2022-09-12T14:49:45.033Z,18.53
2022-09-12T14:52:32.385Z,18.49
2022-09-12T14:55:22.006Z,18.45
2022-09-12T14:58:13.252Z,18.34
2022-09-12T15:00:57.935Z,18.23
2022-09-12T15:03:33.055Z,18.16
2022-09-12T15:06:08.125Z,18.13
2022-09-12T15:08:43.263Z,18.11
2022-09-12T15:11:15.331Z,18.09
2022-09-12T15:13:47.590Z,18.07
2022-09-12T15:16:20.142Z,18.06
2022-09-12T15:18:52.335Z,18.02
2022-09-12T15:21:27.509Z,17.99
2022-09-12T15:24:00.255Z,17.96
2022-09-12T15:26:32.472Z,17.94
2022-09-12T15:29:04.926Z,17.94
2022-09-12T15:31:37.069Z,17.92
2022-09-12T15:34:10.241Z,17.90
2022-09-12T15:36:42.571Z,17.89
2022-09-12T15:39:14.661Z,17.90
2022-09-12T15:41:48.889Z,17.89
2022-09-12T15:44:21.029Z,17.87
2022-09-12T15:46:53.428Z,17.83
2022-09-12T15:49:25.527Z,17.79
2022-09-12T15:51:57.589Z,17.76
2022-09-12T15:54:32.938Z,17.74
2022-09-12T15:57:05.134Z,17.74
2022-09-12T15:59:37.471Z,17.74
2022-09-12T16:02:12.729Z,17.76
2022-09-12T16:04:44.904Z,17.76
2022-09-12T16:07:17.263Z,17.76
2022-09-12T16:09:50.179Z,17.76
2022-09-12T16:12:22.375Z,17.72
2022-09-12T16:14:54.878Z,17.67
2022-09-12T16:17:27.864Z,17.68
2022-09-12T16:20:02.622Z,17.68
2022-09-12T16:22:35.250Z,17.69
2022-09-12T16:25:09.225Z,17.70
2022-09-12T16:27:41.922Z,17.70
2022-09-12T16:30:16.777Z,17.66
2022-09-12T16:32:49.053Z,17.61
2022-09-12T16:35:21.872Z,17.57
2022-09-12T16:37:54.065Z,17.52
2022-09-12T16:40:26.109Z,17.49
2022-09-12T16:42:58.393Z,17.45
2022-09-12T16:45:30.647Z,17.38
2022-09-12T16:48:03.508Z,17.32
2022-09-12T16:50:36.010Z,17.28
2022-09-12T16:53:08.601Z,17.26
2022-09-12T16:56:11.172Z,17.20
2022-09-12T16:59:48.982Z,17.15
2022-09-12T17:02:23.990Z,17.12
2022-09-12T17:05:02.620Z,17.02
2022-09-12T17:07:35.376Z,16.99
2022-09-12T17:10:08.637Z,16.94
2022-09-12T17:12:49.588Z,16.88
2022-09-12T17:16:12.891Z,16.86
2022-09-12T17:22:37.837Z,16.75
2022-09-12T17:25:11.239Z,16.70
2022-09-12T17:28:29.420Z,16.65
2022-09-12T17:31:04.234Z,16.59
2022-09-12T17:35:30.888Z,16.51
2022-09-12T17:42:34.242Z,16.35
2022-09-12T17:45:15.048Z,16.27
2022-09-12T17:48:39.675Z,16.15
2022-09-12T17:51:21.064Z,16.05
2022-09-12T17:54:42.358Z,15.92
2022-09-12T17:58:04.619Z,15.86
2022-09-12T18:04:50.545Z,15.63
2022-09-12T18:08:14.291Z,15.55
2022-09-12T18:11:35.444Z,15.48
2022-09-12T18:19:02.660Z,15.24
2022-09-12T18:23:18.821Z,15.13
2022-09-12T18:27:04.456Z,15.04
2022-09-12T18:29:39.541Z,14.92
2022-09-12T18:33:09.851Z,14.85
2022-09-12T18:39:48.834Z,14.63
2022-09-12T18:47:16.440Z,14.41
2022-09-12T19:03:08.207Z,14.02
2022-09-12T19:05:40.912Z,13.97
2022-09-12T19:08:14.185Z,13.91
2022-09-12T19:10:46.709Z,13.85
2022-09-12T19:13:19.474Z,13.82
2022-09-12T19:15:52.489Z,13.78
2022-09-12T19:18:24.936Z,13.72
2022-09-12T19:20:57.778Z,13.68
2022-09-12T19:23:31.683Z,13.64
2022-09-12T19:26:06.866Z,13.61
2022-09-12T19:28:39.645Z,13.60
2022-09-12T19:31:14.634Z,13.59
2022-09-12T19:33:47.381Z,13.58
2022-09-12T19:36:43.894Z,13.53
2022-09-12T19:39:15.243Z,13.49
2022-09-12T19:41:50.596Z,13.45
2022-09-12T19:44:23.769Z,13.40
2022-09-12T19:46:56.670Z,13.39
2022-09-12T19:49:29.503Z,13.35
2022-09-12T19:52:02.377Z,13.29
2022-09-12T19:54:35.876Z,13.24
2022-09-12T19:57:10.827Z,13.19
2022-09-12T19:59:43.393Z,13.15
2022-09-12T20:02:17.292Z,13.10
2022-09-12T20:04:52.225Z,13.05
2022-09-12T20:07:25.061Z,12.99
2022-09-12T20:09:58.204Z,12.95
2022-09-12T20:12:33.428Z,12.95
2022-09-12T20:15:06.500Z,12.92
2022-09-12T20:17:40.018Z,12.87
2022-09-12T20:20:13.087Z,12.81
2022-09-12T20:22:46.585Z,12.81
2022-09-12T20:25:20.123Z,12.77
2022-09-12T20:27:54.979Z,12.73
2022-09-12T20:30:30.561Z,12.72
2022-09-12T20:33:04.970Z,12.73
2022-09-12T20:35:38.214Z,12.72
2022-09-12T20:38:12.731Z,12.71
2022-09-12T20:40:50.625Z,12.66
2022-09-12T20:43:23.093Z,12.62
2022-09-12T20:45:55.285Z,12.60
2022-09-12T20:48:27.417Z,12.60
2022-09-12T20:51:03.181Z,12.59
2022-09-12T20:53:35.712Z,12.59
2022-09-12T20:56:10.417Z,12.60
2022-09-12T20:58:44.260Z,12.60
2022-09-12T21:01:18.415Z,12.59
2022-09-12T21:03:51.406Z,12.56
2022-09-12T21:06:24.439Z,12.52
2022-09-12T21:09:00.679Z,12.49
2022-09-12T21:11:33.226Z,12.47
2022-09-12T21:14:06.582Z,12.45
2022-09-12T21:16:39.417Z,12.44
2022-09-12T21:19:11.531Z,12.41
2022-09-12T21:21:43.858Z,12.38
2022-09-12T21:24:16.909Z,12.34
2022-09-12T21:26:49.325Z,12.31
2022-09-12T21:29:21.366Z,12.28
2022-09-12T21:31:53.820Z,12.26
2022-09-12T21:34:25.952Z,12.23
2022-09-12T21:36:58.215Z,12.20
2022-09-12T21:39:30.901Z,12.19
2022-09-12T21:42:03.003Z,12.19
2022-09-12T21:44:35.172Z,12.17
2022-09-12T21:47:07.672Z,12.16
2022-09-12T21:49:39.797Z,12.14
2022-09-12T21:52:12.632Z,12.10
2022-09-12T21:54:44.851Z,12.08
2022-09-12T21:57:16.967Z,12.06
2022-09-12T21:59:49.377Z,12.04
2022-09-12T22:02:23.060Z,12.04
2022-09-12T22:04:55.195Z,12.01
2022-09-12T22:07:27.905Z,11.96
2022-09-12T22:10:00.494Z,11.92
2022-09-12T22:12:33.539Z,11.90
2022-09-12T22:15:29.283Z,11.87
2022-09-12T22:18:00.150Z,11.82
2022-09-12T22:20:35.259Z,11.78
2022-09-12T22:23:25.371Z,11.73
2022-09-12T22:25:59.025Z,11.67
2022-09-12T22:28:32.389Z,11.63
2022-09-12T22:31:06.527Z,11.60
2022-09-12T22:33:39.170Z,11.56
2022-09-12T22:36:12.055Z,11.51
2022-09-12T22:38:44.419Z,11.45
2022-09-12T22:41:17.176Z,11.43
2022-09-12T22:43:55.476Z,11.40
2022-09-12T22:46:28.065Z,11.37
2022-09-12T22:49:00.338Z,11.34
2022-09-12T22:51:32.875Z,11.30
2022-09-12T22:54:05.795Z,11.28
2022-09-12T22:56:38.244Z,11.25
2022-09-12T22:59:10.564Z,11.23
2022-09-12T23:01:42.728Z,11.20
2022-09-12T23:04:15.011Z,11.17
2022-09-12T23:06:47.403Z,11.11
2022-09-12T23:09:19.775Z,11.06
2022-09-12T23:11:52.179Z,11.04
2022-09-12T23:14:24.365Z,11.03
2022-09-12T23:16:56.640Z,10.99
2022-09-12T23:19:29.343Z,10.97
2022-09-12T23:22:01.812Z,10.94
2022-09-12T23:24:34.084Z,10.92
2022-09-12T23:27:06.757Z,10.91
2022-09-12T23:29:39.332Z,10.88
2022-09-12T23:32:11.755Z,10.85
2022-09-12T23:34:46.532Z,10.82
2022-09-12T23:37:18.910Z,10.79
2022-09-12T23:39:51.624Z,10.79
2022-09-12T23:42:24.422Z,10.78
2022-09-12T23:44:56.779Z,10.77
2022-09-12T23:47:29.093Z,10.74
2022-09-12T23:50:01.547Z,10.75
2022-09-12T23:52:34.318Z,10.76
2022-09-12T23:55:07.435Z,10.76
2022-09-12T23:57:39.948Z,10.74
